createdAt,value
2022-11-30T00:07:35.095Z,28.33
2022-11-30T00:17:37.208Z,23.13
2022-11-30T00:27:46.628Z,23.03
2022-11-30T00:37:50.190Z,20.67
2022-11-30T00:47:55.882Z,14.40
2022-11-30T00:58:00.390Z,26.33
2022-11-30T01:08:07.601Z,21.37
2022-11-30T01:18:12.062Z,24.77
2022-11-30T01:28:17.200Z,23.60
2022-11-30T01:38:22.471Z,26.43
2022-11-30T01:48:29.349Z,24.67
2022-11-30T01:58:36.758Z,22.03
2022-11-30T02:08:38.983Z,20.00
2022-11-30T02:18:41.049Z,25.07
2022-11-30T02:29:00.869Z,19.63
2022-11-30T02:39:03.234Z,27.23
2022-11-30T02:49:10.123Z,25.70
2022-11-30T02:59:12.687Z,24.67
2022-11-30T03:09:15.086Z,28.90
2022-11-30T03:19:21.830Z,26.20
2022-11-30T03:29:24.261Z,23.97
2022-11-30T03:39:26.401Z,23.47
2022-11-30T03:49:28.574Z,22.00
2022-11-30T03:59:33.012Z,22.00
2022-11-30T04:09:35.031Z,24.63
2022-11-30T04:19:41.619Z,24.90
2022-11-30T04:29:44.062Z,23.47
2022-11-30T04:39:50.669Z,23.93
2022-11-30T04:49:56.251Z,21.83
2022-11-30T05:00:00.888Z,23.53
2022-11-30T05:10:06.750Z,23.63
2022-11-30T05:20:13.994Z,21.77
2022-11-30T05:30:21.434Z,21.83
2022-11-30T05:40:25.904Z,26.67
2022-11-30T05:50:28.211Z,14.37
2022-11-30T06:00:30.240Z,20.50
2022-11-30T06:10:36.739Z,23.60
2022-11-30T06:20:39.233Z,17.40
2022-11-30T06:30:43.889Z,23.80
2022-11-30T06:40:45.959Z,16.70
2022-11-30T06:50:50.240Z,23.27
2022-11-30T07:00:55.095Z,22.70
2022-11-30T07:10:59.627Z,22.10
2022-11-30T07:21:07.402Z,16.10
2022-11-30T07:31:21.730Z,26.23
2022-11-30T07:41:28.837Z,27.10
2022-11-30T07:51:37.410Z,25.67
2022-11-30T08:01:39.537Z,24.80
2022-11-30T08:11:41.808Z,27.70
2022-11-30T08:21:46.049Z,25.60
2022-11-30T08:31:48.165Z,28.57
2022-11-30T08:41:53.260Z,24.87
2022-11-30T08:52:17.831Z,22.53
2022-11-30T09:02:20.480Z,25.83
2022-11-30T09:12:23.878Z,21.83
2022-11-30T09:22:28.720Z,24.23
2022-11-30T09:32:30.875Z,29.83
2022-11-30T09:42:57.590Z,26.20
2022-11-30T09:53:06.777Z,25.07
2022-11-30T10:03:15.237Z,22.60
2022-11-30T10:13:36.281Z,18.07
2022-11-30T10:23:47.352Z,19.97
2022-11-30T10:33:53.389Z,18.50
2022-11-30T10:44:10.502Z,18.03
2022-11-30T10:54:19.905Z,23.03
2022-11-30T11:04:27.586Z,21.70
2022-11-30T11:14:37.663Z,21.30
2022-11-30T11:24:42.933Z,22.70
2022-11-30T11:34:50.880Z,18.90
2022-11-30T11:44:58.523Z,19.17
2022-11-30T11:55:08.947Z,22.70
2022-11-30T12:05:24.621Z,20.23
2022-11-30T12:15:33.126Z,19.40
2022-11-30T12:25:47.437Z,17.80
2022-11-30T12:36:10.777Z,20.57
2022-11-30T12:46:31.389Z,20.00
2022-11-30T12:56:45.686Z,20.57
2022-11-30T13:06:58.515Z,13.17
2022-11-30T13:17:05.642Z,17.13
2022-11-30T13:27:16.479Z,19.37
2022-11-30T13:37:25.803Z,16.30
2022-11-30T13:47:36.242Z,17.17
2022-11-30T13:57:38.261Z,21.43
2022-11-30T14:07:44.230Z,18.93
2022-11-30T14:17:46.806Z,23.23
2022-11-30T14:27:53.415Z,19.00
2022-11-30T14:37:59.213Z,19.97
2022-11-30T14:48:18.032Z,19.73
2022-11-30T14:58:47.247Z,21.67
2022-11-30T15:08:54.149Z,19.03
2022-11-30T15:18:59.640Z,16.50
2022-11-30T15:29:13.312Z,16.77
2022-11-30T15:39:23.501Z,18.60
2022-11-30T15:49:28.445Z,23.50
2022-11-30T15:59:34.805Z,17.67
2022-11-30T16:09:41.697Z,23.17
2022-11-30T16:19:49.375Z,17.87
2022-11-30T16:29:55.210Z,17.70
2022-11-30T16:39:59.658Z,20.30
2022-11-30T16:50:04.232Z,21.90
2022-11-30T17:00:09.596Z,18.43
2022-11-30T17:10:13.932Z,14.53
2022-11-30T17:20:20.735Z,18.97
2022-11-30T17:30:23.960Z,14.50
2022-11-30T17:40:33.961Z,14.60
2022-11-30T17:50:39.311Z,12.57
2022-11-30T18:00:41.691Z,13.80
2022-11-30T18:10:49.113Z,14.13
2022-11-30T18:20:56.000Z,11.60
2022-11-30T18:31:00.640Z,14.13
2022-11-30T18:41:06.426Z,15.07
2022-11-30T18:51:15.824Z,15.60
2022-11-30T19:01:21.154Z,14.73
2022-11-30T19:11:28.324Z,10.53
2022-11-30T19:21:30.543Z,13.73
2022-11-30T19:31:32.550Z,13.57
2022-11-30T19:41:35.854Z,13.13
2022-11-30T19:51:38.067Z,11.03
2022-11-30T20:01:42.647Z,8.80
2022-11-30T20:11:45.565Z,10.87
2022-11-30T20:21:48.488Z,10.77
2022-11-30T20:31:55.282Z,12.10
2022-11-30T20:41:57.352Z,7.13
2022-11-30T20:51:59.495Z,13.10
2022-11-30T21:02:06.432Z,16.73
2022-11-30T21:12:13.413Z,16.23
2022-11-30T21:22:15.557Z,13.80
2022-11-30T21:32:17.687Z,12.93
2022-11-30T21:42:19.793Z,11.67
2022-11-30T21:52:21.852Z,14.33
2022-11-30T22:02:24.091Z,11.17
2022-11-30T22:12:28.969Z,14.88
2022-11-30T22:22:31.280Z,12.53
2022-11-30T22:32:35.837Z,13.40
2022-11-30T22:42:41.870Z,16.13
2022-11-30T22:53:02.365Z,14.00
2022-11-30T23:03:08.350Z,12.37
2022-11-30T23:13:13.134Z,14.63
2022-11-30T23:23:20.249Z,12.87
2022-11-30T23:33:22.287Z,13.47
2022-11-30T23:43:32.592Z,14.47
2022-11-30T23:53:36.972Z,14.00
